createdAt,value
2018-01-13T00:01:51.811Z,66.53
2018-01-13T00:04:19.214Z,64.20
2018-01-13T00:06:46.607Z,63.03
2018-01-13T00:09:14.014Z,71.90
2018-01-13T00:11:41.408Z,70.70
2018-01-13T00:14:08.803Z,54.83
2018-01-13T00:16:36.223Z,70.63
2018-01-13T00:19:03.633Z,76.37
2018-01-13T00:21:31.030Z,84.00
2018-01-13T00:23:58.446Z,73.80
2018-01-13T00:26:25.837Z,71.63
2018-01-13T00:28:53.242Z,70.10
2018-01-13T00:31:20.644Z,68.67
2018-01-13T00:33:48.063Z,77.53
2018-01-13T00:36:15.489Z,72.87
2018-01-13T00:38:42.894Z,72.13
2018-01-13T00:41:10.317Z,64.67
2018-01-13T00:43:37.714Z,70.83
2018-01-13T00:46:05.123Z,73.67
2018-01-13T00:48:32.514Z,63.03
2018-01-13T00:50:59.928Z,63.17
2018-01-13T00:53:27.319Z,85.40
2018-01-13T00:55:54.827Z,62.93
2018-01-13T00:58:22.217Z,74.07
2018-01-13T01:00:49.639Z,68.30
2018-01-13T01:03:17.039Z,74.37
2018-01-13T01:05:44.556Z,78.73
2018-01-13T01:08:11.952Z,66.70
2018-01-13T01:10:39.350Z,77.37
2018-01-13T01:13:06.791Z,81.67
2018-01-13T01:15:34.181Z,69.53
2018-01-13T01:18:01.570Z,67.43
2018-01-13T01:20:28.995Z,71.70
2018-01-13T01:22:56.379Z,70.30
2018-01-13T01:25:23.903Z,80.67
2018-01-13T01:27:51.294Z,73.57
2018-01-13T01:30:18.704Z,70.87
2018-01-13T01:32:46.106Z,79.77
2018-01-13T01:35:13.560Z,70.93
2018-01-13T01:37:40.907Z,70.53
2018-01-13T01:40:08.300Z,86.73
2018-01-13T01:42:35.722Z,72.37
2018-01-13T01:45:03.130Z,81.63
2018-01-13T01:47:30.591Z,80.53
2018-01-13T01:49:58.008Z,71.77
2018-01-13T01:52:25.415Z,72.83
2018-01-13T01:54:52.794Z,73.50
2018-01-13T01:57:20.306Z,67.80
2018-01-13T01:59:47.707Z,75.73
2018-01-13T02:02:15.106Z,79.60
2018-01-13T02:04:42.503Z,84.00
2018-01-13T02:07:09.909Z,81.63
2018-01-13T02:09:37.326Z,76.10
2018-01-13T02:12:04.736Z,83.37
2018-01-13T02:14:32.131Z,69.97
2018-01-13T02:16:59.537Z,70.47
2018-01-13T02:19:26.926Z,72.43
2018-01-13T02:21:54.330Z,70.03
2018-01-13T02:24:21.713Z,89.03
2018-01-13T02:26:49.141Z,77.47
2018-01-13T02:29:16.569Z,75.57
2018-01-13T02:31:43.970Z,86.00
2018-01-13T02:34:11.366Z,83.10
2018-01-13T02:36:38.760Z,82.13
2018-01-13T02:39:06.170Z,75.33
2018-01-13T02:41:33.566Z,84.33
2018-01-13T02:44:01.038Z,78.67
2018-01-13T02:46:28.449Z,76.50
2018-01-13T02:48:55.846Z,79.20
2018-01-13T02:51:23.237Z,72.60
2018-01-13T02:53:50.642Z,88.10
2018-01-13T02:56:18.058Z,82.00
2018-01-13T02:58:45.462Z,70.53
2018-01-13T03:01:12.871Z,78.23
2018-01-13T03:03:40.277Z,71.83
2018-01-13T03:06:07.669Z,73.27
2018-01-13T03:08:35.074Z,67.13
2018-01-13T03:11:02.471Z,65.73
2018-01-13T03:13:29.892Z,68.40
2018-01-13T03:15:57.282Z,69.03
2018-01-13T03:18:24.700Z,82.13
2018-01-13T03:20:52.113Z,67.37
2018-01-13T03:23:19.518Z,64.30
2018-01-13T03:25:46.922Z,52.10
2018-01-13T03:28:14.313Z,71.50
2018-01-13T03:30:41.723Z,68.27
2018-01-13T03:33:09.138Z,62.47
2018-01-13T03:35:36.566Z,70.90
2018-01-13T03:38:03.958Z,71.50
2018-01-13T03:40:31.422Z,67.37
2018-01-13T03:42:58.814Z,72.20
2018-01-13T03:45:26.226Z,68.37
2018-01-13T03:47:53.631Z,76.60
2018-01-13T03:50:21.053Z,52.60
2018-01-13T03:52:48.450Z,70.97
2018-01-13T03:55:15.854Z,70.83
2018-01-13T03:57:43.246Z,73.43
2018-01-13T04:00:10.650Z,74.87
2018-01-13T04:02:38.055Z,76.73
2018-01-13T04:05:05.479Z,79.60
2018-01-13T04:07:32.883Z,74.60
2018-01-13T04:10:00.398Z,67.63
2018-01-13T04:12:27.814Z,70.10
2018-01-13T04:14:55.212Z,67.40
2018-01-13T04:17:22.614Z,76.20
2018-01-13T04:19:50.042Z,73.97
2018-01-13T04:22:17.457Z,61.30
2018-01-13T04:24:44.849Z,63.70
2018-01-13T04:27:12.242Z,74.60
2018-01-13T04:29:39.652Z,69.20
2018-01-13T04:32:07.733Z,68.63
2018-01-13T04:34:35.170Z,72.63
2018-01-13T04:37:02.582Z,60.40
2018-01-13T04:39:30.015Z,70.23
2018-01-13T04:41:57.398Z,56.90
2018-01-13T04:44:24.889Z,62.53
2018-01-13T04:46:52.310Z,76.73
2018-01-13T04:49:19.715Z,59.80
2018-01-13T04:51:47.152Z,63.73
2018-01-13T04:54:14.541Z,69.87
2018-01-13T04:56:41.941Z,67.23
2018-01-13T04:59:09.343Z,69.00
2018-01-13T05:01:36.757Z,69.67
2018-01-13T05:04:04.163Z,64.00
2018-01-13T05:06:31.577Z,64.77
2018-01-13T05:08:58.962Z,68.13
2018-01-13T05:11:26.362Z,65.43
2018-01-13T05:13:53.759Z,62.00
2018-01-13T05:16:21.166Z,64.40
2018-01-13T05:18:48.570Z,57.57
2018-01-13T05:21:15.999Z,52.83
2018-01-13T05:23:43.390Z,71.33
2018-01-13T05:26:10.803Z,63.17
2018-01-13T05:28:38.195Z,86.47
2018-01-13T05:31:05.615Z,64.87
2018-01-13T05:33:33.064Z,85.33
2018-01-13T05:36:00.409Z,61.67
2018-01-13T05:38:27.824Z,71.87
2018-01-13T05:40:55.222Z,71.03
2018-01-13T05:43:22.625Z,76.27
2018-01-13T05:45:50.827Z,75.00
2018-01-13T05:48:18.232Z,61.57
2018-01-13T05:50:45.921Z,82.70
2018-01-13T05:53:13.343Z,72.50
2018-01-13T05:55:40.750Z,75.27
2018-01-13T05:58:08.154Z,80.73
2018-01-13T06:00:35.546Z,74.00
2018-01-13T06:03:02.950Z,79.97
2018-01-13T06:05:30.359Z,82.97
2018-01-13T06:07:57.742Z,72.73
2018-01-13T06:10:25.237Z,81.97
2018-01-13T06:12:52.642Z,87.70
2018-01-13T06:15:20.142Z,83.10
2018-01-13T06:17:47.598Z,72.60
2018-01-13T06:20:15.046Z,75.60
2018-01-13T06:22:42.451Z,84.20
2018-01-13T06:25:09.846Z,73.40
2018-01-13T06:27:37.250Z,77.37
2018-01-13T06:30:04.689Z,83.07
2018-01-13T06:32:32.098Z,83.13
2018-01-13T06:34:59.514Z,80.93
2018-01-13T06:37:26.910Z,81.10
2018-01-13T06:39:54.602Z,83.83
2018-01-13T06:42:21.990Z,94.87
2018-01-13T06:44:49.409Z,87.40
2018-01-13T06:47:16.797Z,89.20
2018-01-13T06:49:44.231Z,95.73
2018-01-13T06:52:11.650Z,86.07
2018-01-13T06:54:39.066Z,87.00
2018-01-13T06:57:06.462Z,89.00
2018-01-13T06:59:33.959Z,81.27
2018-01-13T07:02:01.437Z,99.90
2018-01-13T07:04:28.854Z,90.30
2018-01-13T07:06:56.251Z,80.63
2018-01-13T07:09:23.649Z,91.77
2018-01-13T07:11:51.043Z,85.13
2018-01-13T07:14:18.474Z,92.17
2018-01-13T07:16:45.854Z,88.13
2018-01-13T07:19:13.258Z,91.50
2018-01-13T07:21:40.786Z,102.87
2018-01-13T07:24:08.186Z,82.73
2018-01-13T07:26:35.635Z,75.73
2018-01-13T07:29:03.051Z,81.47
2018-01-13T07:31:30.463Z,92.03
2018-01-13T07:33:57.854Z,85.20
2018-01-13T07:36:25.250Z,94.77
2018-01-13T07:38:52.656Z,89.80
2018-01-13T07:41:20.054Z,80.90
2018-01-13T07:43:47.552Z,102.70
2018-01-13T07:46:14.934Z,78.53
2018-01-13T07:48:42.338Z,66.90
2018-01-13T07:51:09.746Z,79.17
2018-01-13T07:53:37.144Z,77.33
2018-01-13T07:56:06.295Z,88.03
2018-01-13T07:58:33.733Z,92.30
2018-01-13T08:01:01.138Z,112.70
2018-01-13T08:03:28.561Z,97.47
2018-01-13T08:05:55.944Z,85.07
2018-01-13T08:08:23.333Z,83.27
2018-01-13T08:10:50.731Z,89.93
2018-01-13T08:13:18.120Z,97.20
2018-01-13T08:15:45.525Z,82.20
2018-01-13T08:18:12.948Z,78.40
2018-01-13T08:20:40.355Z,86.47
2018-01-13T08:23:07.760Z,80.50
2018-01-13T08:25:35.160Z,73.43
2018-01-13T08:28:02.563Z,85.70
2018-01-13T08:30:29.966Z,75.03
2018-01-13T08:32:57.366Z,73.30
2018-01-13T08:35:24.850Z,68.47
2018-01-13T08:37:52.247Z,92.77
2018-01-13T08:40:19.671Z,81.80
2018-01-13T08:42:47.046Z,82.43
2018-01-13T08:45:14.478Z,74.10
2018-01-13T08:47:41.898Z,73.23
2018-01-13T08:50:09.295Z,71.23
2018-01-13T08:52:36.699Z,80.10
2018-01-13T08:55:04.139Z,76.37
2018-01-13T08:57:31.532Z,92.17
2018-01-13T08:59:58.927Z,78.73
2018-01-13T09:02:26.332Z,77.80
2018-01-13T09:04:53.742Z,69.30
2018-01-13T09:07:21.147Z,68.27
2018-01-13T09:09:48.533Z,61.97
2018-01-13T09:12:15.991Z,71.50
2018-01-13T09:14:43.377Z,61.17
2018-01-13T09:17:10.782Z,69.87
2018-01-13T09:19:38.175Z,66.17
2018-01-13T09:22:05.579Z,67.17
2018-01-13T09:24:32.975Z,72.07
2018-01-13T09:27:00.382Z,65.30
2018-01-13T09:29:27.777Z,69.90
2018-01-13T09:31:55.185Z,72.57
2018-01-13T09:34:22.575Z,76.50
2018-01-13T09:36:50.006Z,81.30
2018-01-13T09:39:17.406Z,81.00
2018-01-13T09:41:44.806Z,89.17
2018-01-13T09:44:12.202Z,87.40
2018-01-13T09:46:39.630Z,99.13
2018-01-13T09:49:07.059Z,93.03
2018-01-13T09:51:34.454Z,89.97
2018-01-13T09:54:01.861Z,88.77
2018-01-13T09:56:29.254Z,72.80
2018-01-13T09:58:56.662Z,77.27
2018-01-13T10:01:24.067Z,90.87
2018-01-13T10:03:51.498Z,89.67
2018-01-13T10:06:18.893Z,89.10
2018-01-13T10:08:46.294Z,86.90
2018-01-13T10:11:13.694Z,93.83
2018-01-13T10:13:41.094Z,93.40
2018-01-13T10:16:08.562Z,89.50
2018-01-13T10:18:35.966Z,90.30
2018-01-13T10:21:03.378Z,100.30
2018-01-13T10:23:31.603Z,104.37
2018-01-13T10:25:59.030Z,78.00
2018-01-13T10:28:26.451Z,94.33
2018-01-13T10:30:53.853Z,73.57
2018-01-13T10:33:21.251Z,89.07
2018-01-13T10:35:48.663Z,88.50
2018-01-13T10:38:16.093Z,100.10
2018-01-13T10:40:43.478Z,91.37
2018-01-13T10:43:10.899Z,100.03
2018-01-13T10:45:38.323Z,99.43
2018-01-13T10:48:05.723Z,101.17
2018-01-13T10:50:33.132Z,88.60
2018-01-13T10:53:00.514Z,94.13
2018-01-13T10:55:27.930Z,99.20
2018-01-13T10:57:55.383Z,90.80
2018-01-13T11:00:22.792Z,95.47
2018-01-13T11:02:50.183Z,96.73
2018-01-13T11:05:17.595Z,103.63
2018-01-13T11:07:45.131Z,97.57
2018-01-13T11:10:12.584Z,101.37
2018-01-13T11:12:39.945Z,97.20
2018-01-13T11:15:07.342Z,94.57
2018-01-13T11:17:34.754Z,101.33
2018-01-13T11:20:02.146Z,101.00
2018-01-13T11:22:29.550Z,98.63
2018-01-13T11:24:56.970Z,118.70
2018-01-13T11:27:24.409Z,109.13
2018-01-13T11:29:51.804Z,120.97
2018-01-13T11:32:19.212Z,126.90
2018-01-13T11:34:46.618Z,109.53
2018-01-13T11:37:14.030Z,122.70
2018-01-13T11:39:41.425Z,109.00
2018-01-13T11:42:08.817Z,122.50
2018-01-13T11:44:36.234Z,114.00
2018-01-13T11:47:03.629Z,133.53
2018-01-13T11:49:31.023Z,87.70
2018-01-13T11:51:58.430Z,111.43
2018-01-13T11:54:25.848Z,112.63
2018-01-13T11:56:53.240Z,112.07
2018-01-13T11:59:20.654Z,117.53
2018-01-13T12:01:48.076Z,96.10
2018-01-13T12:04:15.466Z,105.97
2018-01-13T12:06:42.870Z,109.37
2018-01-13T12:09:10.267Z,98.87
2018-01-13T12:11:37.669Z,105.13
2018-01-13T12:14:05.090Z,107.40
2018-01-13T12:16:32.508Z,110.57
2018-01-13T12:18:59.927Z,103.93
2018-01-13T12:21:27.330Z,100.00
2018-01-13T12:23:54.726Z,94.20
2018-01-13T12:26:22.130Z,101.33
2018-01-13T12:28:49.535Z,101.70
2018-01-13T12:31:16.935Z,96.30
2018-01-13T12:33:44.334Z,97.97
2018-01-13T12:36:11.759Z,93.00
2018-01-13T12:38:39.194Z,80.37
2018-01-13T12:41:06.602Z,93.63
2018-01-13T12:43:34.025Z,98.70
2018-01-13T12:46:01.554Z,108.40
2018-01-13T12:48:28.942Z,90.43
2018-01-13T12:50:56.346Z,100.10
2018-01-13T12:53:23.760Z,109.30
2018-01-13T12:55:51.167Z,115.20
2018-01-13T12:58:18.582Z,91.90
2018-01-13T13:00:46.134Z,105.93
2018-01-13T13:03:13.544Z,102.20
2018-01-13T13:05:40.983Z,116.00
2018-01-13T13:08:08.383Z,92.17
2018-01-13T13:10:35.782Z,101.53
2018-01-13T13:13:03.191Z,115.80
2018-01-13T13:15:30.593Z,99.57
2018-01-13T13:17:58.000Z,101.23
2018-01-13T13:20:25.401Z,99.87
2018-01-13T13:22:52.815Z,92.67
2018-01-13T13:25:20.223Z,104.20
2018-01-13T13:27:47.634Z,98.37
2018-01-13T13:30:15.043Z,104.87
2018-01-13T13:32:42.493Z,89.13
2018-01-13T13:35:09.898Z,101.63
2018-01-13T13:37:37.296Z,84.80
2018-01-13T13:40:04.995Z,94.80
2018-01-13T13:42:32.395Z,83.97
2018-01-13T13:44:59.791Z,98.30
2018-01-13T13:47:27.211Z,110.80
2018-01-13T13:49:54.690Z,97.57
2018-01-13T13:52:22.082Z,100.90
2018-01-13T13:54:49.503Z,100.03
2018-01-13T13:57:16.914Z,98.90
2018-01-13T13:59:50.347Z,102.17
2018-01-13T14:02:11.727Z,102.10
2018-01-13T14:04:39.131Z,92.77
2018-01-13T14:07:06.539Z,106.87
2018-01-13T14:09:33.938Z,113.13
2018-01-13T14:12:01.423Z,94.43
2018-01-13T14:14:28.831Z,101.77
2018-01-13T14:16:56.230Z,94.90
2018-01-13T14:19:23.622Z,90.57
2018-01-13T14:21:51.030Z,81.93
2018-01-13T14:24:18.447Z,92.03
2018-01-13T14:26:45.995Z,99.97
2018-01-13T14:29:13.398Z,90.17
2018-01-13T14:31:40.808Z,103.00
2018-01-13T14:34:08.206Z,85.93
2018-01-13T14:36:35.698Z,98.57
2018-01-13T14:39:03.095Z,88.90
2018-01-13T14:41:30.506Z,105.07
2018-01-13T14:43:57.908Z,100.07
2018-01-13T14:46:25.298Z,96.73
2018-01-13T14:48:52.705Z,95.27
2018-01-13T14:51:20.135Z,84.93
2018-01-13T14:53:47.522Z,94.43
2018-01-13T14:56:14.934Z,87.97
2018-01-13T14:58:42.338Z,108.50
2018-01-13T15:01:09.741Z,106.10
2018-01-13T15:03:37.154Z,107.13
2018-01-13T15:06:04.557Z,100.90
2018-01-13T15:08:31.970Z,103.20
2018-01-13T15:10:59.359Z,96.10
2018-01-13T15:13:26.762Z,107.00
2018-01-13T15:15:54.161Z,95.27
2018-01-13T15:18:21.577Z,104.60
2018-01-13T15:20:48.958Z,108.43
2018-01-13T15:23:16.362Z,80.60
2018-01-13T15:25:43.870Z,102.50
2018-01-13T15:28:11.280Z,101.80
2018-01-13T15:30:38.698Z,79.97
2018-01-13T15:33:06.106Z,107.53
2018-01-13T15:35:33.516Z,86.80
2018-01-13T15:38:00.931Z,87.60
2018-01-13T15:40:28.338Z,88.97
2018-01-13T15:42:55.743Z,86.97
2018-01-13T15:45:23.144Z,92.63
2018-01-13T15:47:50.557Z,72.80
2018-01-13T15:50:17.935Z,89.47
2018-01-13T15:52:45.347Z,85.77
2018-01-13T15:55:12.759Z,89.47
2018-01-13T15:57:40.167Z,73.27
2018-01-13T16:00:07.562Z,74.50
2018-01-13T16:02:34.995Z,71.23
2018-01-13T16:05:02.386Z,69.37
2018-01-13T16:07:30.307Z,65.53
2018-01-13T16:09:57.698Z,59.97
2018-01-13T16:12:25.094Z,88.33
2018-01-13T16:14:52.494Z,69.43
2018-01-13T16:17:19.950Z,54.37
2018-01-13T16:19:47.334Z,57.83
2018-01-13T16:22:14.733Z,60.13
2018-01-13T16:24:42.118Z,65.60
2018-01-13T16:27:09.562Z,64.53
2018-01-13T16:29:36.959Z,53.60
2018-01-13T16:32:04.376Z,45.70
2018-01-13T16:34:31.766Z,51.07
2018-01-13T16:36:59.279Z,42.30
2018-01-13T16:39:26.687Z,50.53
2018-01-13T16:41:54.102Z,45.73
2018-01-13T16:44:21.497Z,44.00
2018-01-13T16:46:48.914Z,45.57
2018-01-13T16:49:16.311Z,42.73
2018-01-13T16:51:43.699Z,45.20
2018-01-13T16:54:11.098Z,38.23
2018-01-13T16:56:38.537Z,40.83
2018-01-13T16:59:05.903Z,43.40
2018-01-13T17:01:33.294Z,40.00
2018-01-13T17:04:00.695Z,29.83
2018-01-13T17:06:28.095Z,35.77
2018-01-13T17:08:55.527Z,32.97
2018-01-13T17:11:22.918Z,32.73
2018-01-13T17:13:51.086Z,31.47
2018-01-13T17:16:18.608Z,31.87
2018-01-13T17:18:46.009Z,31.03
2018-01-13T17:21:13.399Z,38.33
2018-01-13T17:23:40.795Z,32.97
2018-01-13T17:26:08.190Z,32.50
2018-01-13T17:28:35.679Z,24.40
2018-01-13T17:31:03.068Z,30.57
2018-01-13T17:33:30.469Z,26.10
2018-01-13T17:35:57.861Z,33.40
2018-01-13T17:38:25.266Z,24.27
2018-01-13T17:40:52.666Z,27.13
2018-01-13T17:43:20.074Z,25.07
2018-01-13T17:45:47.470Z,23.90
2018-01-13T17:48:14.955Z,29.37
2018-01-13T17:50:42.346Z,27.30
2018-01-13T17:53:09.755Z,28.40
2018-01-13T17:55:37.141Z,27.47
2018-01-13T17:58:04.538Z,28.13
2018-01-13T18:00:31.925Z,26.90
2018-01-13T18:03:00.149Z,25.47
2018-01-13T18:05:27.655Z,24.83
2018-01-13T18:07:55.050Z,27.87
2018-01-13T18:10:22.446Z,37.37
2018-01-13T18:12:49.876Z,27.00
2018-01-13T18:15:17.385Z,27.60
2018-01-13T18:17:44.778Z,29.40
2018-01-13T18:20:12.178Z,27.73
2018-01-13T18:22:39.583Z,25.67
2018-01-13T18:25:07.059Z,26.60
2018-01-13T18:27:34.447Z,21.87
2018-01-13T18:30:01.858Z,17.97
2018-01-13T18:32:29.291Z,25.03
2018-01-13T18:34:56.679Z,24.50
2018-01-13T18:37:24.088Z,20.07
2018-01-13T18:39:51.507Z,19.63
2018-01-13T18:42:18.903Z,22.13
2018-01-13T18:44:45.598Z,20.67
2018-01-13T18:47:13.019Z,21.20
2018-01-13T18:49:40.425Z,19.37
2018-01-13T18:52:07.822Z,21.93
2018-01-13T18:54:35.249Z,23.23
2018-01-13T18:57:02.650Z,14.77
2018-01-13T18:59:30.047Z,22.73
2018-01-13T19:01:57.443Z,18.83
2018-01-13T19:04:24.843Z,21.77
2018-01-13T19:06:52.246Z,19.27
2018-01-13T19:09:19.703Z,18.37
2018-01-13T19:11:47.097Z,19.47
2018-01-13T19:14:14.503Z,17.60
2018-01-13T19:16:41.898Z,21.00
2018-01-13T19:19:09.305Z,14.40
2018-01-13T19:21:36.698Z,20.97
2018-01-13T19:24:04.106Z,17.00
2018-01-13T19:26:31.493Z,16.47
2018-01-13T19:28:58.925Z,22.10
2018-01-13T19:31:26.329Z,22.40
2018-01-13T19:33:53.741Z,18.00
2018-01-13T19:36:21.130Z,17.93
2018-01-13T19:38:48.526Z,17.70
2018-01-13T19:41:15.950Z,16.23
2018-01-13T19:43:43.364Z,19.90
2018-01-13T19:46:10.770Z,16.90
2018-01-13T19:48:38.177Z,18.47
2018-01-13T19:51:05.580Z,17.13
2018-01-13T19:53:32.979Z,17.50
2018-01-13T19:56:00.383Z,15.83
2018-01-13T19:58:27.787Z,19.97
2018-01-13T20:00:55.178Z,19.43
2018-01-13T20:03:22.619Z,21.37
2018-01-13T20:05:50.015Z,15.07
2018-01-13T20:08:17.414Z,18.37
2018-01-13T20:10:44.811Z,17.47
2018-01-13T20:13:12.218Z,21.53
2018-01-13T20:15:39.619Z,19.90
2018-01-13T20:18:07.015Z,18.93
2018-01-13T20:20:34.422Z,18.90
2018-01-13T20:23:01.834Z,18.10
2018-01-13T20:25:29.231Z,20.10
2018-01-13T20:27:56.703Z,18.60
2018-01-13T20:30:24.095Z,18.20
2018-01-13T20:32:51.484Z,17.10
2018-01-13T20:35:18.886Z,19.63
2018-01-13T20:37:46.301Z,18.33
2018-01-13T20:40:13.702Z,23.60
2018-01-13T20:42:41.107Z,20.77
2018-01-13T20:45:08.506Z,19.60
2018-01-13T20:47:35.910Z,22.63
2018-01-13T20:50:03.344Z,20.37
2018-01-13T20:52:30.738Z,18.00
2018-01-13T20:54:58.227Z,21.20
2018-01-13T20:57:25.620Z,24.20
2018-01-13T20:59:53.067Z,18.83
2018-01-13T21:02:20.458Z,19.70
2018-01-13T21:04:47.858Z,20.07
2018-01-13T21:07:15.272Z,20.23
2018-01-13T21:09:42.681Z,19.73
2018-01-13T21:12:10.062Z,20.80
2018-01-13T21:14:37.469Z,22.37
2018-01-13T21:17:04.866Z,22.83
2018-01-13T21:19:32.274Z,21.17
2018-01-13T21:21:59.678Z,17.33
2018-01-13T21:24:27.082Z,17.33
2018-01-13T21:26:54.478Z,15.90
2018-01-13T21:29:21.898Z,19.30
2018-01-13T21:31:49.298Z,21.17
2018-01-13T21:34:16.694Z,20.40
2018-01-13T21:36:44.092Z,19.43
2018-01-13T21:39:11.490Z,16.30
2018-01-13T21:41:38.899Z,18.17
2018-01-13T21:44:06.318Z,22.47
2018-01-13T21:46:33.703Z,18.17
2018-01-13T21:49:01.103Z,19.27
2018-01-13T21:51:28.508Z,17.87
2018-01-13T21:53:55.927Z,14.57
2018-01-13T21:56:23.308Z,14.47
2018-01-13T21:58:50.740Z,17.47
2018-01-13T22:01:18.157Z,17.10
2018-01-13T22:03:45.592Z,17.00
2018-01-13T22:06:12.980Z,16.17
2018-01-13T22:08:40.374Z,16.40
2018-01-13T22:11:07.768Z,19.87
2018-01-13T22:13:35.186Z,16.00
2018-01-13T22:16:02.574Z,19.13
2018-01-13T22:18:29.995Z,16.73
2018-01-13T22:20:57.451Z,16.70
2018-01-13T22:23:24.842Z,20.13
2018-01-13T22:25:52.280Z,15.47
2018-01-13T22:28:19.715Z,15.00
2018-01-13T22:30:47.190Z,14.37
2018-01-13T22:33:14.619Z,14.80
2018-01-13T22:35:42.024Z,19.53
2018-01-13T22:38:09.427Z,14.50
2018-01-13T22:40:36.850Z,17.13
2018-01-13T22:43:04.311Z,19.90
2018-01-13T22:45:31.720Z,14.07
2018-01-13T22:47:59.114Z,17.23
2018-01-13T22:50:26.554Z,16.00
2018-01-13T22:52:53.974Z,12.40
2018-01-13T22:55:21.374Z,12.97
2018-01-13T22:57:48.808Z,16.67
2018-01-13T23:00:16.212Z,15.20
2018-01-13T23:02:43.635Z,15.30
2018-01-13T23:05:11.199Z,15.03
2018-01-13T23:07:38.590Z,13.57
2018-01-13T23:10:06.004Z,16.43
2018-01-13T23:12:33.398Z,13.13
2018-01-13T23:15:00.803Z,13.07
2018-01-13T23:17:28.211Z,12.87
2018-01-13T23:19:55.718Z,16.30
2018-01-13T23:22:23.118Z,20.70
2018-01-13T23:24:50.566Z,15.70
2018-01-13T23:27:21.907Z,16.00
2018-01-13T23:29:49.306Z,15.93
2018-01-13T23:32:16.695Z,12.27
2018-01-13T23:34:44.146Z,14.53
2018-01-13T23:37:11.538Z,15.60
2018-01-13T23:39:38.991Z,14.20
2018-01-13T23:42:06.395Z,15.37
2018-01-13T23:44:33.794Z,14.20
2018-01-13T23:47:01.199Z,14.87
2018-01-13T23:49:28.594Z,18.73
2018-01-13T23:51:55.990Z,17.33
2018-01-13T23:54:23.389Z,13.53
2018-01-13T23:56:50.807Z,17.87
2018-01-13T23:59:18.214Z,13.37
